Airport View

Enter AWOS ICAO identifier for current METAR.

ex. KFNL

KSYF 212355Z AUTO 06013KT 10SM CLR 25/M01 A2991 RMK AO2 T02471009 10282 20247 PWINO

22 Sep 2019 00:14

Frequency: 118.925

Phone: 785-332-2691

Other Area AWOS: KGLD - K2V5 - KITR - KCBK

TAF KGLD 212321Z 2200/2224 07011G16KT P6SM SKC FM220600 01015G25KT P6SM VCTS SCT090CB SCT120 FM221100 35009KT P6SM SCT250 FM221800 25011KT P6SM SCT200